createdAt,value
2019-05-30T00:02:07.316Z,102014.19
2019-05-30T00:04:33.375Z,102004.62
2019-05-30T00:07:00.438Z,102005.85
2019-05-30T00:09:26.481Z,102011.11
2019-05-30T00:11:52.346Z,102009.56
2019-05-30T00:14:18.209Z,102019.12
2019-05-30T00:16:44.064Z,102021.20
2019-05-30T00:19:09.962Z,102013.54
2019-05-30T00:21:35.806Z,102010.31
2019-05-30T00:24:02.085Z,102018.40
2019-05-30T00:26:28.053Z,102006.37
2019-05-30T00:28:53.901Z,102008.77
2019-05-30T00:31:19.754Z,102011.28
2019-05-30T00:33:45.822Z,102013.63
2019-05-30T00:36:11.677Z,102011.75
2019-05-30T00:38:37.529Z,102017.38
2019-05-30T00:41:04.210Z,102009.90
2019-05-30T00:43:30.244Z,102018.92
2019-05-30T00:45:56.095Z,102007.66
2019-05-30T00:48:21.966Z,102003.20
2019-05-30T00:50:47.818Z,102012.41
2019-05-30T00:53:13.797Z,102005.97
2019-05-30T00:55:39.718Z,102011.60
2019-05-30T00:58:07.321Z,102006.30
2019-05-30T01:00:43.407Z,101996.05
2019-05-30T01:03:03.598Z,101998.06
2019-05-30T01:05:29.061Z,101993.06
2019-05-30T01:07:54.913Z,101990.77
2019-05-30T01:10:20.981Z,101990.73
2019-05-30T01:12:46.956Z,101989.23
2019-05-30T01:15:14.225Z,101986.79
2019-05-30T01:17:40.082Z,101985.63
2019-05-30T01:20:07.455Z,101986.36
2019-05-30T01:22:33.500Z,101979.25
2019-05-30T01:24:59.365Z,101975.71
2019-05-30T01:27:25.222Z,101975.05
2019-05-30T01:29:51.074Z,101967.73
2019-05-30T01:32:29.144Z,101970.92
2019-05-30T01:34:57.591Z,101973.52
2019-05-30T01:37:23.654Z,101973.63
2019-05-30T01:39:49.527Z,101959.28
2019-05-30T01:42:15.427Z,101960.66
2019-05-30T01:44:41.286Z,101963.44
2019-05-30T01:47:08.299Z,101958.63
2019-05-30T01:49:34.353Z,101963.59
2019-05-30T01:52:00.360Z,101964.38
2019-05-30T01:54:26.290Z,101974.75
2019-05-30T01:56:53.306Z,101967.42
2019-05-30T01:59:19.303Z,101973.94
2019-05-30T02:01:45.474Z,101972.72
2019-05-30T02:04:11.372Z,101969.59
2019-05-30T02:06:38.206Z,101972.45
2019-05-30T02:09:05.668Z,101979.36
2019-05-30T02:11:31.516Z,101963.70
2019-05-30T02:13:57.407Z,101956.03
2019-05-30T02:16:23.336Z,101964.02
2019-05-30T02:18:49.251Z,101969.12
2019-05-30T02:21:15.070Z,101970.81
2019-05-30T02:23:40.930Z,101962.53
2019-05-30T02:26:06.795Z,101962.68
2019-05-30T02:28:32.671Z,101962.00
2019-05-30T02:30:58.525Z,101962.89
2019-05-30T02:33:24.384Z,101956.14
2019-05-30T02:35:50.543Z,101961.20
2019-05-30T02:38:16.455Z,101960.94
2019-05-30T02:40:42.313Z,101966.30
2019-05-30T02:43:12.153Z,101966.72
2019-05-30T02:45:38.449Z,101972.51
2019-05-30T02:48:05.474Z,101976.44
2019-05-30T02:50:35.988Z,101973.78
2019-05-30T02:53:03.540Z,101973.73
2019-05-30T02:55:29.617Z,101971.45
2019-05-30T02:57:55.489Z,101975.64
2019-05-30T03:00:32.021Z,101976.15
2019-05-30T03:02:57.873Z,101975.95
2019-05-30T03:05:23.735Z,101982.30
2019-05-30T03:07:49.788Z,101970.18
2019-05-30T03:10:16.055Z,101973.30
2019-05-30T03:12:42.011Z,101970.96
2019-05-30T03:15:11.777Z,101975.44
2019-05-30T03:17:35.827Z,101978.75
2019-05-30T03:20:07.962Z,101976.45
2019-05-30T03:22:30.543Z,101982.50
2019-05-30T03:24:56.434Z,101974.34
2019-05-30T03:27:22.400Z,101979.40
2019-05-30T03:29:48.246Z,101977.44
2019-05-30T03:33:00.967Z,101974.22
2019-05-30T03:34:41.893Z,101973.17
2019-05-30T03:37:16.734Z,101979.22
2019-05-30T03:39:35.501Z,101985.96
2019-05-30T03:42:01.353Z,101985.20
2019-05-30T03:44:27.303Z,101998.31
2019-05-30T03:46:56.990Z,101988.91
2019-05-30T03:49:26.655Z,101992.81
2019-05-30T03:51:56.314Z,101990.42
2019-05-30T03:54:24.759Z,101989.53
2019-05-30T03:56:54.416Z,101992.45
2019-05-30T03:59:29.842Z,101993.09
2019-05-30T04:01:57.528Z,101999.05
2019-05-30T04:04:27.129Z,102000.78
2019-05-30T04:06:56.821Z,101994.27
2019-05-30T04:09:25.474Z,102006.84
2019-05-30T04:12:21.087Z,102002.02
2019-05-30T04:14:50.751Z,102001.98
2019-05-30T04:17:18.297Z,102004.56
2019-05-30T04:19:44.358Z,102002.31
2019-05-30T04:22:11.602Z,102003.19
2019-05-30T04:24:37.897Z,102012.79
2019-05-30T04:27:03.741Z,102011.75
2019-05-30T04:29:29.617Z,101999.49
2019-05-30T04:31:55.464Z,102002.75
2019-05-30T04:34:21.327Z,102005.33
2019-05-30T04:36:47.194Z,102006.84
2019-05-30T04:39:14.613Z,101999.00
2019-05-30T04:41:40.790Z,101997.30
2019-05-30T04:44:06.681Z,102008.15
2019-05-30T04:46:32.531Z,102002.11
2019-05-30T04:48:58.399Z,101999.70
2019-05-30T04:51:24.376Z,102002.41
2019-05-30T04:53:50.233Z,102007.92
2019-05-30T04:56:17.034Z,102011.98
2019-05-30T04:58:43.870Z,102019.45
2019-05-30T05:01:11.007Z,102011.97
2019-05-30T05:03:45.877Z,102018.37
2019-05-30T05:06:04.846Z,102020.39
2019-05-30T05:08:31.292Z,102031.42
2019-05-30T05:10:57.160Z,102021.39
2019-05-30T05:13:23.038Z,102024.76
2019-05-30T05:15:48.903Z,102019.17
2019-05-30T05:18:15.077Z,102031.58
2019-05-30T05:20:41.046Z,102030.97
2019-05-30T05:23:06.903Z,102026.49
2019-05-30T05:25:32.756Z,102030.13
2019-05-30T05:27:58.630Z,102030.56
2019-05-30T05:30:26.260Z,102025.77
2019-05-30T05:32:52.162Z,102033.19
2019-05-30T05:35:18.702Z,102033.70
2019-05-30T05:37:44.924Z,102027.56
2019-05-30T05:40:11.233Z,102029.23
2019-05-30T05:42:37.167Z,102033.89
2019-05-30T05:45:07.267Z,102029.53
2019-05-30T05:47:33.173Z,102040.52
2019-05-30T05:49:59.117Z,102041.39
2019-05-30T05:52:25.071Z,102045.00
2019-05-30T05:54:50.960Z,102042.91
2019-05-30T05:57:16.894Z,102048.67
2019-05-30T05:59:42.756Z,102045.98
2019-05-30T06:02:09.434Z,102052.66
2019-05-30T06:04:35.434Z,102058.64
2019-05-30T06:07:01.325Z,102058.56
2019-05-30T06:09:27.246Z,102050.59
2019-05-30T06:11:53.108Z,102062.69
2019-05-30T06:14:19.860Z,102056.50
2019-05-30T06:16:45.945Z,102061.64
2019-05-30T06:19:11.812Z,102063.70
2019-05-30T06:21:53.165Z,102073.84
2019-05-30T06:24:08.746Z,102074.78
2019-05-30T06:26:34.608Z,102068.91
2019-05-30T06:29:00.577Z,102068.27
2019-05-30T06:31:26.667Z,102072.73
2019-05-30T06:33:52.683Z,102075.20
2019-05-30T06:36:18.837Z,102072.89
2019-05-30T06:38:44.795Z,102076.48
2019-05-30T06:41:10.697Z,102079.43
2019-05-30T06:43:36.551Z,102085.60
2019-05-30T06:46:02.479Z,102075.66
2019-05-30T06:48:28.784Z,102076.67
2019-05-30T06:50:54.785Z,102073.19
2019-05-30T06:53:21.002Z,102072.25
2019-05-30T06:55:47.075Z,102083.72
2019-05-30T06:58:12.933Z,102079.48
2019-05-30T07:00:38.789Z,102077.33
2019-05-30T07:03:04.741Z,102082.61
2019-05-30T07:05:32.250Z,102083.50
2019-05-30T07:07:59.220Z,102083.44
2019-05-30T07:10:25.079Z,102094.23
2019-05-30T07:12:50.973Z,102091.48
2019-05-30T07:15:19.230Z,102088.72
2019-05-30T07:17:45.250Z,102095.98
2019-05-30T07:20:11.614Z,102090.60
2019-05-30T07:22:37.489Z,102096.70
2019-05-30T07:25:04.779Z,102102.74
2019-05-30T07:27:30.639Z,102109.25
2019-05-30T07:29:56.497Z,102108.48
2019-05-30T07:32:22.374Z,102112.25
2019-05-30T07:34:48.430Z,102117.20
2019-05-30T07:37:14.347Z,102111.53
2019-05-30T07:39:40.224Z,102114.71
2019-05-30T07:42:06.928Z,102111.59
2019-05-30T07:44:32.944Z,102124.85
2019-05-30T07:46:58.802Z,102121.72
2019-05-30T07:49:24.673Z,102122.16
2019-05-30T07:51:50.844Z,102132.83
2019-05-30T07:54:16.796Z,102132.44
2019-05-30T07:56:42.900Z,102125.03
2019-05-30T07:59:08.696Z,102120.56
2019-05-30T08:01:34.715Z,102128.84
2019-05-30T08:04:00.624Z,102127.19
2019-05-30T08:06:27.466Z,102128.69
2019-05-30T08:08:53.538Z,102130.50
2019-05-30T08:11:19.501Z,102127.41
2019-05-30T08:13:45.386Z,102130.72
2019-05-30T08:16:11.257Z,102129.49
2019-05-30T08:18:37.962Z,102132.41
2019-05-30T08:21:04.016Z,102129.70
2019-05-30T08:23:30.120Z,102130.78
2019-05-30T08:25:56.051Z,102124.30
2019-05-30T08:28:22.376Z,102143.13
2019-05-30T08:30:49.211Z,102148.00
2019-05-30T08:33:15.089Z,102144.41
2019-05-30T08:35:49.150Z,102146.62
2019-05-30T08:38:08.725Z,102149.66
2019-05-30T08:40:35.391Z,102146.43
2019-05-30T08:43:01.444Z,102155.80
2019-05-30T08:45:27.617Z,102143.45
2019-05-30T08:47:53.497Z,102153.40
2019-05-30T08:50:19.760Z,102155.09
2019-05-30T08:52:45.706Z,102137.12
2019-05-30T08:55:12.364Z,102141.42
2019-05-30T08:57:38.720Z,102143.13
2019-05-30T09:00:06.392Z,102149.69
2019-05-30T09:02:32.256Z,102154.33
2019-05-30T09:04:58.110Z,102160.44
2019-05-30T09:07:24.482Z,102157.95
2019-05-30T09:09:50.352Z,102153.13
2019-05-30T09:12:16.206Z,102158.28
2019-05-30T09:14:42.843Z,102161.94
2019-05-30T09:17:08.982Z,102155.46
2019-05-30T09:19:34.852Z,102168.02
2019-05-30T09:22:00.728Z,102165.72
2019-05-30T09:24:26.588Z,102178.09
2019-05-30T09:26:52.441Z,102176.25
2019-05-30T09:29:18.328Z,102171.55
2019-05-30T09:31:44.585Z,102179.34
2019-05-30T09:34:12.120Z,102171.09
2019-05-30T09:36:39.387Z,102161.26
2019-05-30T09:39:06.880Z,102174.09
2019-05-30T09:41:32.741Z,102161.92
2019-05-30T09:43:58.599Z,102165.02
2019-05-30T09:46:24.490Z,102170.11
2019-05-30T09:48:51.713Z,102160.86
2019-05-30T09:51:17.785Z,102171.58
2019-05-30T09:53:43.883Z,102168.66
2019-05-30T09:56:10.202Z,102163.02
2019-05-30T09:58:36.050Z,102168.75
2019-05-30T10:01:01.913Z,102165.98
2019-05-30T10:03:27.778Z,102173.52
2019-05-30T10:05:53.630Z,102169.96
2019-05-30T10:08:19.573Z,102173.62
2019-05-30T10:10:45.740Z,102175.91
2019-05-30T10:13:13.427Z,102167.77
2019-05-30T10:15:39.376Z,102179.95
2019-05-30T10:18:05.544Z,102171.88
2019-05-30T10:23:11.582Z,102173.14
2019-05-30T10:25:37.555Z,102176.13
2019-05-30T10:28:03.629Z,102183.44
2019-05-30T10:30:29.795Z,102180.47
2019-05-30T10:32:56.002Z,102186.68
2019-05-30T10:35:22.144Z,102190.94
2019-05-30T10:37:49.055Z,102200.56
2019-05-30T10:40:15.796Z,102199.28
2019-05-30T10:42:41.725Z,102205.36
2019-05-30T10:45:09.278Z,102201.05
2019-05-30T10:47:35.148Z,102200.20
2019-05-30T10:50:01.909Z,102206.09
2019-05-30T10:52:27.784Z,102198.60
2019-05-30T10:54:53.647Z,102209.61
2019-05-30T10:57:19.622Z,102215.83
2019-05-30T10:59:45.968Z,102205.82
2019-05-30T11:02:13.282Z,102217.58
2019-05-30T11:04:39.144Z,102220.66
2019-05-30T11:07:12.269Z,102220.84
2019-05-30T11:09:41.645Z,102226.80
2019-05-30T11:12:07.523Z,102231.95
2019-05-30T11:14:33.390Z,102233.11
2019-05-30T11:16:59.247Z,102222.42
2019-05-30T11:19:25.129Z,102223.09
2019-05-30T11:21:52.662Z,102226.41
2019-05-30T11:24:18.817Z,102226.21
2019-05-30T11:26:44.845Z,102229.72
2019-05-30T11:29:10.695Z,102236.20
2019-05-30T11:31:39.206Z,102239.77
2019-05-30T11:34:05.202Z,102224.66
2019-05-30T11:36:31.057Z,102223.02
2019-05-30T11:38:57.418Z,102231.79
2019-05-30T11:41:23.405Z,102234.63
2019-05-30T11:43:51.206Z,102225.38
2019-05-30T11:46:17.210Z,102228.88
2019-05-30T11:48:49.578Z,102225.57
2019-05-30T11:51:17.044Z,102232.00
2019-05-30T11:53:49.755Z,102229.67
2019-05-30T11:56:18.993Z,102239.21
2019-05-30T11:58:44.801Z,102235.44
2019-05-30T12:01:10.686Z,102240.30
2019-05-30T12:03:36.538Z,102232.64
2019-05-30T12:06:02.608Z,102241.48
2019-05-30T12:08:28.482Z,102236.08
2019-05-30T12:10:55.019Z,102238.66
2019-05-30T12:13:21.781Z,102241.41
2019-05-30T12:15:47.638Z,102246.37
2019-05-30T12:18:13.547Z,102241.66
2019-05-30T12:20:40.815Z,102241.77
2019-05-30T12:23:06.666Z,102236.30
2019-05-30T12:25:32.532Z,102234.97
2019-05-30T12:27:58.400Z,102231.36
2019-05-30T12:30:24.467Z,102224.94
2019-05-30T12:32:50.319Z,102222.84
2019-05-30T12:35:17.105Z,102226.75
2019-05-30T12:37:54.234Z,102238.03
2019-05-30T12:40:11.426Z,102224.13
2019-05-30T12:42:37.902Z,102227.76
2019-05-30T12:45:07.661Z,102223.94
2019-05-30T12:47:38.490Z,102220.25
2019-05-30T12:50:07.287Z,102211.73
2019-05-30T12:52:33.168Z,102209.23
2019-05-30T12:54:59.046Z,102198.19
2019-05-30T12:57:24.915Z,102199.22
2019-05-30T12:59:50.776Z,102207.39
2019-05-30T13:02:16.616Z,102206.34
2019-05-30T13:04:42.470Z,102205.72
2019-05-30T13:07:08.411Z,102199.41
2019-05-30T13:09:34.258Z,102199.91
2019-05-30T13:12:00.540Z,102204.06
2019-05-30T13:14:26.607Z,102199.30
2019-05-30T13:16:52.456Z,102198.01
2019-05-30T13:19:18.319Z,102182.08
2019-05-30T13:21:44.175Z,102197.14
2019-05-30T13:24:10.030Z,102193.74
2019-05-30T13:26:35.886Z,102189.29
2019-05-30T13:29:02.308Z,102195.61
2019-05-30T13:31:28.349Z,102201.95
2019-05-30T13:33:54.221Z,102200.31
2019-05-30T13:36:20.099Z,102202.31
2019-05-30T13:38:46.010Z,102195.87
2019-05-30T13:41:11.862Z,102203.05
2019-05-30T13:43:37.817Z,102204.65
2019-05-30T13:46:06.382Z,102196.55
2019-05-30T13:48:34.721Z,102204.64
2019-05-30T13:51:00.795Z,102204.64
2019-05-30T13:53:27.062Z,102205.41
2019-05-30T13:55:53.026Z,102196.13
2019-05-30T13:58:18.891Z,102198.50
2019-05-30T14:00:44.748Z,102198.88
2019-05-30T14:03:10.713Z,102199.22
2019-05-30T14:05:36.590Z,102202.19
2019-05-30T14:08:02.746Z,102195.36
2019-05-30T14:10:28.819Z,102192.68
2019-05-30T14:12:54.719Z,102196.47
2019-05-30T14:15:20.658Z,102196.07
2019-05-30T14:17:46.522Z,102196.58
2019-05-30T14:20:14.531Z,102188.30
2019-05-30T14:22:40.499Z,102187.64
2019-05-30T14:25:07.526Z,102192.02
2019-05-30T14:27:34.009Z,102188.55
2019-05-30T14:30:04.651Z,102188.11
2019-05-30T14:32:30.463Z,102189.09
2019-05-30T14:34:56.364Z,102192.55
2019-05-30T14:37:22.222Z,102191.45
2019-05-30T14:39:48.115Z,102182.31
2019-05-30T14:42:13.975Z,102189.66
2019-05-30T14:44:39.829Z,102192.48
2019-05-30T14:47:06.364Z,102197.93
2019-05-30T14:49:32.290Z,102192.00
2019-05-30T14:51:58.145Z,102200.02
2019-05-30T14:54:24.012Z,102197.98
2019-05-30T14:56:49.921Z,102197.68
2019-05-30T14:59:15.779Z,102199.55
2019-05-30T15:01:41.679Z,102199.08
2019-05-30T15:04:07.535Z,102201.41
2019-05-30T15:06:33.871Z,102209.73
2019-05-30T15:09:15.300Z,102199.64
2019-05-30T15:11:29.197Z,102212.92
2019-05-30T15:13:58.499Z,102207.85
2019-05-30T15:16:24.912Z,102211.89
2019-05-30T15:18:55.310Z,102217.82
2019-05-30T15:21:21.327Z,102211.50
2019-05-30T15:23:47.225Z,102208.95
2019-05-30T15:26:14.200Z,102219.95
2019-05-30T15:28:40.130Z,102226.33
2019-05-30T15:31:06.640Z,102221.67
2019-05-30T15:33:32.757Z,102233.23
2019-05-30T15:35:58.632Z,102222.22
2019-05-30T15:38:24.486Z,102231.25
2019-05-30T15:40:50.359Z,102229.58
2019-05-30T15:43:16.220Z,102233.45
2019-05-30T15:45:42.088Z,102237.66
2019-05-30T15:48:08.302Z,102239.25
2019-05-30T15:50:34.460Z,102228.76
2019-05-30T15:53:00.339Z,102243.52
2019-05-30T15:55:26.510Z,102232.82
2019-05-30T15:57:52.378Z,102236.11
2019-05-30T16:00:19.998Z,102230.31
2019-05-30T16:02:46.046Z,102231.89
2019-05-30T16:05:12.924Z,102231.04
2019-05-30T16:07:38.789Z,102239.28
2019-05-30T16:10:05.747Z,102225.41
2019-05-30T16:12:31.679Z,102229.59
2019-05-30T16:14:57.542Z,102231.88
2019-05-30T16:17:23.424Z,102228.70
2019-05-30T16:19:49.331Z,102236.34
2019-05-30T16:22:16.278Z,102232.75
2019-05-30T16:24:42.254Z,102235.10
2019-05-30T16:27:08.124Z,102229.78
2019-05-30T16:29:33.994Z,102236.59
2019-05-30T16:31:59.883Z,102231.30
2019-05-30T16:34:26.425Z,102233.22
2019-05-30T16:36:52.295Z,102242.17
2019-05-30T16:39:18.238Z,102241.31
2019-05-30T16:41:44.117Z,102243.41
2019-05-30T16:44:10.084Z,102237.48
2019-05-30T16:46:35.955Z,102230.70
2019-05-30T16:49:01.811Z,102243.43
2019-05-30T16:51:27.664Z,102249.85
2019-05-30T16:53:53.540Z,102247.98
2019-05-30T16:56:19.476Z,102240.28
2019-05-30T16:58:45.285Z,102230.53
2019-05-30T17:01:11.130Z,102242.03
2019-05-30T17:03:37.850Z,102232.05
2019-05-30T17:06:03.886Z,102227.17
2019-05-30T17:08:29.750Z,102232.55
2019-05-30T17:10:55.623Z,102223.66
2019-05-30T17:13:21.710Z,102226.82
2019-05-30T17:15:47.567Z,102232.85
2019-05-30T17:18:13.440Z,102232.85
2019-05-30T17:20:39.342Z,102224.27
2019-05-30T17:23:05.194Z,102224.30
2019-05-30T17:25:31.059Z,102229.30
2019-05-30T17:27:57.178Z,102229.84
2019-05-30T17:30:23.763Z,102229.84
2019-05-30T17:32:49.660Z,102231.23
2019-05-30T17:35:16.119Z,102235.23
2019-05-30T17:37:41.986Z,102230.78
2019-05-30T17:40:10.817Z,102230.78
2019-05-30T17:42:39.973Z,102238.80
2019-05-30T17:45:06.933Z,102240.56
2019-05-30T17:47:32.781Z,102233.66
2019-05-30T17:49:58.642Z,102238.38
2019-05-30T17:52:25.593Z,102236.81
2019-05-30T17:54:51.713Z,102239.59
2019-05-30T17:57:17.715Z,102243.43
2019-05-30T17:59:43.589Z,102236.63
2019-05-30T18:02:09.446Z,102232.14
2019-05-30T18:04:35.321Z,102235.47
2019-05-30T18:07:01.197Z,102243.45
2019-05-30T18:09:27.201Z,102233.02
2019-05-30T18:11:53.043Z,102232.16
2019-05-30T18:14:18.907Z,102245.25
2019-05-30T18:16:44.809Z,102249.75
2019-05-30T18:19:10.711Z,102249.95
2019-05-30T18:21:36.599Z,102246.69
2019-05-30T18:24:03.170Z,102252.95
2019-05-30T18:26:30.086Z,102254.14
2019-05-30T18:28:55.943Z,102245.45
2019-05-30T18:31:21.986Z,102250.00
2019-05-30T18:33:47.887Z,102257.14
2019-05-30T18:36:13.731Z,102249.64
2019-05-30T18:38:39.604Z,102251.22
2019-05-30T18:41:11.314Z,102259.41
2019-05-30T18:43:33.222Z,102252.12
2019-05-30T18:45:59.084Z,102252.33
2019-05-30T18:48:25.278Z,102252.65
2019-05-30T18:50:51.197Z,102251.61
2019-05-30T18:53:17.060Z,102253.72
2019-05-30T18:55:42.943Z,102260.71
2019-05-30T18:58:08.836Z,102254.07
2019-05-30T19:00:34.747Z,102254.98
2019-05-30T19:03:00.617Z,102254.27
2019-05-30T19:05:26.677Z,102255.16
2019-05-30T19:07:52.539Z,102257.62
2019-05-30T19:10:18.498Z,102256.05
2019-05-30T19:12:46.529Z,102258.13
2019-05-30T19:15:15.419Z,102264.41
2019-05-30T19:17:41.368Z,102265.98
2019-05-30T19:20:07.759Z,102261.09
2019-05-30T19:22:34.207Z,102260.60
2019-05-30T19:25:00.117Z,102264.24
2019-05-30T19:27:26.283Z,102261.29
2019-05-30T19:29:52.198Z,102267.05
2019-05-30T19:32:18.058Z,102268.25
2019-05-30T19:34:43.906Z,102269.66
2019-05-30T19:37:09.865Z,102276.44
2019-05-30T19:39:35.777Z,102273.45
2019-05-30T19:42:01.571Z,102283.39
2019-05-30T19:44:27.757Z,102280.23
2019-05-30T19:46:53.780Z,102275.02
2019-05-30T19:49:19.646Z,102285.47
2019-05-30T19:51:45.513Z,102291.17
2019-05-30T19:54:11.362Z,102284.95
2019-05-30T19:56:39.934Z,102290.51
2019-05-30T19:59:04.979Z,102292.25
2019-05-30T20:01:31.714Z,102295.53
2019-05-30T20:03:57.606Z,102292.08
2019-05-30T20:06:24.826Z,102301.64
2019-05-30T20:08:55.826Z,102298.50
2019-05-30T20:11:23.014Z,102304.06
2019-05-30T20:13:52.405Z,102306.84
2019-05-30T20:16:20.771Z,102305.28
2019-05-30T20:18:46.604Z,102314.34
2019-05-30T20:21:12.468Z,102318.51
2019-05-30T20:23:51.763Z,102321.64
2019-05-30T20:26:06.109Z,102317.80
2019-05-30T20:28:32.706Z,102321.64
2019-05-30T20:30:58.642Z,102328.92
2019-05-30T20:33:24.495Z,102323.89
2019-05-30T20:35:51.172Z,102329.63
2019-05-30T20:38:17.033Z,102329.28
2019-05-30T20:40:43.054Z,102335.37
2019-05-30T20:43:08.946Z,102335.20
2019-05-30T20:45:38.425Z,102327.17
2019-05-30T20:48:02.688Z,102328.92
2019-05-30T20:50:28.567Z,102326.13
2019-05-30T20:52:54.447Z,102321.28
2019-05-30T20:55:20.315Z,102332.23
2019-05-30T20:57:46.904Z,102329.80
2019-05-30T21:00:14.855Z,102335.69
2019-05-30T21:02:40.943Z,102337.43
2019-05-30T21:05:08.268Z,102326.84
2019-05-30T21:07:35.744Z,102332.22
2019-05-30T21:10:05.267Z,102335.17
2019-05-30T21:12:37.875Z,102339.33
2019-05-30T21:15:03.810Z,102332.69
2019-05-30T21:17:31.470Z,102332.19
2019-05-30T21:19:57.507Z,102333.75
2019-05-30T21:22:23.363Z,102338.42
2019-05-30T21:24:49.226Z,102343.13
2019-05-30T21:27:15.092Z,102347.97
2019-05-30T21:29:41.142Z,102349.02
2019-05-30T21:32:07.048Z,102355.63
2019-05-30T21:34:33.074Z,102356.66
2019-05-30T21:37:00.063Z,102357.86
2019-05-30T21:39:25.917Z,102360.64
2019-05-30T21:41:51.766Z,102363.25
2019-05-30T21:44:17.635Z,102364.99
2019-05-30T21:46:44.660Z,102361.68
2019-05-30T21:49:10.653Z,102368.48
2019-05-30T21:51:36.515Z,102370.54
2019-05-30T21:54:02.417Z,102372.63
2019-05-30T21:56:28.278Z,102375.73
2019-05-30T21:58:54.141Z,102375.56
2019-05-30T22:01:24.014Z,102370.90
2019-05-30T22:03:51.003Z,102372.63
2019-05-30T22:06:17.027Z,102372.95
2019-05-30T22:08:43.058Z,102371.91
2019-05-30T22:11:08.953Z,102371.23
2019-05-30T22:13:34.808Z,102369.66
2019-05-30T22:16:00.664Z,102375.89
2019-05-30T22:18:26.516Z,102371.37
2019-05-30T22:20:52.372Z,102367.73
2019-05-30T22:23:18.233Z,102371.55
2019-05-30T22:25:44.271Z,102378.66
2019-05-30T22:28:10.142Z,102372.03
2019-05-30T22:30:36.007Z,102370.10
2019-05-30T22:33:05.301Z,102375.83
2019-05-30T22:35:31.170Z,102369.92
2019-05-30T22:37:57.048Z,102373.93
2019-05-30T22:40:22.897Z,102369.05
2019-05-30T22:42:48.767Z,102369.39
2019-05-30T22:45:15.049Z,102373.55
2019-05-30T22:47:40.930Z,102369.22
2019-05-30T22:50:07.334Z,102374.22
2019-05-30T22:52:33.240Z,102367.45
2019-05-30T22:54:59.101Z,102372.15
2019-05-30T22:57:24.947Z,102368.29
2019-05-30T22:59:50.998Z,102367.96
2019-05-30T23:02:20.765Z,102360.98
2019-05-30T23:04:48.027Z,102362.01
2019-05-30T23:07:13.977Z,102369.10
2019-05-30T23:09:39.823Z,102358.85
2019-05-30T23:12:05.685Z,102370.66
2019-05-30T23:14:31.545Z,102365.11
2019-05-30T23:16:57.422Z,102352.20
2019-05-30T23:19:23.286Z,102355.37
2019-05-30T23:21:49.170Z,102366.56
2019-05-30T23:24:15.064Z,102360.70
2019-05-30T23:26:40.924Z,102358.23
2019-05-30T23:29:06.825Z,102371.09
2019-05-30T23:31:32.670Z,102365.70
2019-05-30T23:33:58.709Z,102375.59
2019-05-30T23:36:24.590Z,102358.55
2019-05-30T23:38:50.786Z,102364.30
2019-05-30T23:41:16.731Z,102366.70
2019-05-30T23:43:55.185Z,102359.58
2019-05-30T23:46:10.347Z,102359.75
2019-05-30T23:48:36.206Z,102361.64
2019-05-30T23:51:02.053Z,102365.63
2019-05-30T23:53:27.907Z,102363.91
2019-05-30T23:55:54.287Z,102359.00
2019-05-30T23:58:20.147Z,102363.83
